This is the latest recevied weather packets stored in our database for station/object CE3RCJ-14. If no packets are shown the sender has not sent any weather packets the latest 10 day(s).
| Time | Temp. | Humidity | Pressure | Rain* | Wind** | Luminosity | Snow |
|---|---|---|---|---|---|---|---|
| 1778030282 | 15.56° C | 49% | 1015.8 hPa | - | - | - | - |
| 1778023982 | 17.22° C | 43% | 1014.4 hPa | - | - | - | - |
| 1778023683 | 17.22° C | 42% | 1014.3 hPa | - | - | - | - |
| 1778018283 | 18.33° C | 38% | 1013.3 hPa | - | - | - | - |
| 1778016185 | 18.33° C | 37% | 1012.3 hPa | - | - | - | - |
| 1778015283 | 18.89° C | 36% | 1012.2 hPa | - | - | - | - |
| 1778011092 | 19.44° C | 34% | 1012.1 hPa | - | - | - | - |
| 1778009916 | 20° C | 34% | 1012.1 hPa | - | - | - | - |
| 1778009585 | 20° C | 34% | 1012 hPa | - | - | - | - |
| 1778009005 | 20° C | 34% | 1012 hPa | - | - | - | - |
| 1778008683 | 20° C | 34% | 1011.9 hPa | - | - | - | - |
| 1778008383 | 20° C | 34% | 1011.8 hPa | - | - | - | - |
| 1778006882 | 20° C | 34% | 1011.6 hPa | - | - | - | - |
| 1778006582 | 20.56° C | 34% | 1011.6 hPa | - | - | - | - |
| 1778001783 | 20.56° C | 34% | 1011.2 hPa | - | - | - | - |
| 1777999682 | 20.56° C | 34% | 1011 hPa | - | - | - | - |
| 1777997882 | 19.44° C | 35% | 1011.6 hPa | - | - | - | - |
| 1777995797 | 18.89° C | 36% | 1012.1 hPa | - | - | - | - |
| 1777994883 | 18.89° C | 36% | 1012.3 hPa | - | - | - | - |
| 1777994583 | 18.89° C | 36% | 1012.4 hPa | - | - | - | - |
| 1777992483 | 18.33° C | 37% | 1013 hPa | - | - | - | - |
| 1777990982 | 17.22° C | 38% | 1013.2 hPa | - | - | - | - |
| 1777989782 | 16.67° C | 39% | 1013.9 hPa | - | - | - | - |
| 1777988882 | 16.11° C | 40% | 1014.4 hPa | - | - | - | - |
| 1777987982 | 15.56° C | 41% | 1014.8 hPa | - | - | - | - |
* Rain since midnight (hover to see other rain measurements)
** Current wind speed in m/s (hover to see current wind gust speed)